Airport Name : Jacksonville Intl

Other Name : Jacksonville

ICAO : KJAX

IATA : JAX

FAA : JAX

Latitude : 30.494056

Longitude : -81.687861

Country : United States

Local Date and Time : 04 Dec 2020 12:39

 

TAF (Terminal Aerodrome Forecast)

KJAX 041718Z 0417/0512 18010G15KT P6SM SCT045 BKN120 BKN250 FM042300 22010KT P6SM VCSH SCT050 BKN150 OVC250 TEMPO 0502/0506 5SM SHRA BR BKN020 OVC050 FM050700 30010KT P6SM VCSH SCT025 BKN045 BKN150 FM051100 31007KT P6SM SCT050

 

METAR (METeorological Aerodrome Report)

KJAX 041656Z 18013G20KT 10SM FEW045 BKN110 23/14 A3011 RMK AO2 SLP197 T02280144

KJAX 041556Z 16009KT 10SM FEW045 BKN120 23/15 A3014 RMK AO2 SLP205 T02280150

KJAX 041456Z 15004KT 10SM FEW045 BKN120 20/14 A3017 RMK AO2 SLP215 T02000144 53002

KJAX 041356Z 00000KT 10SM FEW045 BKN130 17/15 A3016 RMK AO2 SLP215 T01670150

To Charter a Jet Click here.